createdAt,value
2019-02-15T00:02:08.123Z,10.73
2019-02-15T00:04:35.527Z,9.87
2019-02-15T00:07:02.978Z,9.17
2019-02-15T00:09:30.505Z,11.67
2019-02-15T00:11:57.991Z,8.70
2019-02-15T00:14:25.566Z,12.70
2019-02-15T00:16:53.102Z,9.13
2019-02-15T00:19:22.093Z,9.77
2019-02-15T00:21:49.483Z,6.63
2019-02-15T00:24:16.934Z,14.53
2019-02-15T00:26:44.505Z,7.57
2019-02-15T00:29:12.043Z,9.57
2019-02-15T00:31:39.428Z,10.73
2019-02-15T00:34:07.596Z,10.00
2019-02-15T00:36:35.062Z,11.00
2019-02-15T00:39:02.559Z,7.03
2019-02-15T00:41:30.128Z,8.93
2019-02-15T00:43:57.516Z,11.03
2019-02-15T00:46:26.552Z,11.50
2019-02-15T00:48:54.251Z,10.83
2019-02-15T00:51:35.499Z,9.20
2019-02-15T00:54:04.626Z,10.70
2019-02-15T00:56:50.126Z,8.80
2019-02-15T00:59:19.248Z,10.43
2019-02-15T01:02:04.293Z,12.60
2019-02-15T01:04:39.354Z,12.40
2019-02-15T01:07:08.460Z,10.73
2019-02-15T01:09:54.163Z,8.67
2019-02-15T01:12:23.267Z,12.70
2019-02-15T01:14:50.796Z,11.07
2019-02-15T01:17:18.280Z,9.87
2019-02-15T01:19:45.848Z,8.33
2019-02-15T01:22:13.416Z,8.13
2019-02-15T01:24:40.964Z,9.67
2019-02-15T01:27:10.086Z,12.80
2019-02-15T01:29:44.922Z,10.00
2019-02-15T01:32:23.310Z,11.27
2019-02-15T01:35:01.351Z,8.80
2019-02-15T01:37:42.537Z,8.63
2019-02-15T01:40:17.519Z,9.70
2019-02-15T01:42:49.299Z,9.80
2019-02-15T01:45:20.875Z,7.43
2019-02-15T01:47:48.346Z,10.90
2019-02-15T01:50:15.855Z,13.30
2019-02-15T01:52:43.387Z,10.13
2019-02-15T01:55:10.848Z,13.00
2019-02-15T01:57:38.300Z,9.73
2019-02-15T02:00:08.162Z,10.80
2019-02-15T02:02:35.622Z,8.77
2019-02-15T02:05:03.390Z,9.47
2019-02-15T02:07:30.870Z,12.33
2019-02-15T02:09:58.435Z,7.50
2019-02-15T02:12:25.971Z,7.87
2019-02-15T02:14:53.466Z,8.73
2019-02-15T02:17:20.934Z,8.60
2019-02-15T02:19:48.423Z,8.37
2019-02-15T02:22:15.981Z,7.57
2019-02-15T02:24:43.529Z,8.47
2019-02-15T02:27:11.086Z,9.80
2019-02-15T02:29:38.558Z,11.20
2019-02-15T02:32:06.196Z,11.37
2019-02-15T02:34:33.689Z,10.70
2019-02-15T02:37:01.301Z,13.13
2019-02-15T02:39:28.762Z,7.60
2019-02-15T02:41:56.322Z,16.67
2019-02-15T02:44:23.713Z,10.63
2019-02-15T02:46:51.168Z,8.87
2019-02-15T02:49:18.679Z,8.83
2019-02-15T02:51:46.127Z,8.33
2019-02-15T02:54:13.587Z,9.50
2019-02-15T02:56:41.074Z,9.37
2019-02-15T02:59:08.627Z,9.77
2019-02-15T03:01:36.095Z,13.30
2019-02-15T03:04:03.552Z,11.33
2019-02-15T03:06:31.124Z,10.93
2019-02-15T03:08:58.863Z,11.73
2019-02-15T03:11:26.331Z,10.40
2019-02-15T03:13:53.859Z,9.80
2019-02-15T03:16:21.311Z,8.60
2019-02-15T03:18:48.784Z,6.83
2019-02-15T03:21:19.204Z,12.00
2019-02-15T03:23:45.390Z,8.67
2019-02-15T03:26:12.849Z,9.10
2019-02-15T03:28:40.319Z,8.47
2019-02-15T03:31:07.772Z,7.63
2019-02-15T03:33:35.514Z,6.97
2019-02-15T03:36:04.627Z,9.10
2019-02-15T03:38:33.727Z,11.07
2019-02-15T03:41:02.854Z,9.00
2019-02-15T03:43:30.310Z,8.50
2019-02-15T03:45:57.896Z,9.00
2019-02-15T03:48:25.373Z,8.73
2019-02-15T03:50:52.827Z,9.50
2019-02-15T03:53:20.288Z,12.17
2019-02-15T03:55:47.774Z,8.00
2019-02-15T03:58:15.218Z,6.80
2019-02-15T04:00:42.683Z,8.27
2019-02-15T04:03:10.284Z,9.70
2019-02-15T04:05:39.372Z,8.83
2019-02-15T04:08:06.834Z,14.70
2019-02-15T04:10:34.337Z,8.83
2019-02-15T04:13:01.791Z,8.93
2019-02-15T04:15:29.255Z,10.67
2019-02-15T04:17:56.737Z,7.90
2019-02-15T04:20:24.409Z,10.87
2019-02-15T04:22:52.056Z,7.80
2019-02-15T04:25:19.540Z,8.27
2019-02-15T04:27:47.316Z,8.97
2019-02-15T04:30:14.771Z,5.83
2019-02-15T04:32:42.257Z,7.77
2019-02-15T04:35:09.870Z,9.33
2019-02-15T04:37:37.411Z,7.40
2019-02-15T04:40:06.112Z,8.77
2019-02-15T04:42:33.580Z,6.80
2019-02-15T04:45:01.027Z,9.30
2019-02-15T04:47:28.501Z,6.67
2019-02-15T04:49:55.967Z,15.87
2019-02-15T04:52:23.423Z,7.60
2019-02-15T04:54:50.907Z,8.70
2019-02-15T04:57:18.304Z,7.47
2019-02-15T04:59:45.766Z,9.37
2019-02-15T05:02:13.239Z,9.13
2019-02-15T05:04:40.691Z,8.87
2019-02-15T05:07:08.166Z,8.53
2019-02-15T05:09:35.623Z,7.87
2019-02-15T05:12:03.083Z,10.80
2019-02-15T05:14:30.584Z,8.93
2019-02-15T05:16:57.960Z,5.93
2019-02-15T05:19:25.340Z,8.40
2019-02-15T05:21:52.900Z,9.13
2019-02-15T05:24:20.352Z,7.90
2019-02-15T05:26:47.840Z,8.57
2019-02-15T05:29:15.377Z,7.73
2019-02-15T05:31:42.835Z,9.00
2019-02-15T05:34:10.323Z,11.13
2019-02-15T05:36:37.814Z,8.07
2019-02-15T05:39:06.578Z,12.13
2019-02-15T05:41:34.129Z,11.00
2019-02-15T05:44:01.591Z,5.90
2019-02-15T05:46:29.059Z,8.93
2019-02-15T05:48:56.595Z,6.70
2019-02-15T05:51:24.055Z,10.70
2019-02-15T05:53:51.520Z,16.97
2019-02-15T05:56:19.003Z,9.83
2019-02-15T05:58:46.467Z,10.13
2019-02-15T06:01:14.005Z,5.30
2019-02-15T06:03:41.501Z,16.87
2019-02-15T06:06:08.960Z,8.77
2019-02-15T06:08:36.439Z,11.27
2019-02-15T06:11:07.531Z,11.37
2019-02-15T06:13:33.054Z,8.57
2019-02-15T06:16:00.532Z,7.93
2019-02-15T06:18:28.071Z,8.17
2019-02-15T06:20:55.492Z,7.08
2019-02-15T06:23:22.884Z,13.80
2019-02-15T06:25:52.010Z,9.60
2019-02-15T06:28:19.500Z,10.30
2019-02-15T06:30:46.968Z,11.20
2019-02-15T06:33:14.503Z,11.77
2019-02-15T06:35:41.996Z,11.93
2019-02-15T06:38:09.456Z,7.20
2019-02-15T06:40:36.908Z,7.20
2019-02-15T06:43:04.390Z,8.90
2019-02-15T06:45:31.930Z,13.70
2019-02-15T06:47:59.384Z,6.93
2019-02-15T06:50:26.876Z,7.60
2019-02-15T06:52:54.348Z,6.93
2019-02-15T06:55:21.799Z,7.97
2019-02-15T06:57:49.274Z,9.87
2019-02-15T07:00:18.393Z,15.43
2019-02-15T07:02:47.499Z,11.10
2019-02-15T07:05:22.438Z,14.03
2019-02-15T07:07:49.894Z,10.83
2019-02-15T07:10:17.488Z,7.37
2019-02-15T07:12:44.991Z,12.90
2019-02-15T07:15:12.543Z,7.50
2019-02-15T07:17:40.083Z,13.13
2019-02-15T07:20:08.934Z,8.90
2019-02-15T07:22:36.396Z,6.50
2019-02-15T07:25:04.348Z,10.57
2019-02-15T07:27:31.826Z,9.07
2019-02-15T07:29:59.306Z,8.40
2019-02-15T07:32:26.840Z,19.07
2019-02-15T07:34:54.302Z,12.17
2019-02-15T07:37:21.798Z,8.63
2019-02-15T07:39:49.479Z,8.80
2019-02-15T07:42:17.006Z,11.97
2019-02-15T07:44:44.530Z,15.13
2019-02-15T07:47:11.991Z,14.30
2019-02-15T07:49:39.451Z,17.53
2019-02-15T07:52:07.044Z,10.00
2019-02-15T07:54:34.507Z,8.90
2019-02-15T07:57:01.986Z,8.80
2019-02-15T07:59:29.458Z,11.97
2019-02-15T08:02:01.764Z,13.13
2019-02-15T08:04:26.056Z,10.90
2019-02-15T08:06:53.546Z,26.20
2019-02-15T08:09:20.997Z,18.87
2019-02-15T08:11:48.497Z,7.33
2019-02-15T08:14:17.589Z,12.37
2019-02-15T08:16:45.208Z,8.87
2019-02-15T08:19:12.717Z,13.53
2019-02-15T08:21:40.185Z,9.57
2019-02-15T08:24:07.647Z,12.80
2019-02-15T08:26:35.063Z,16.80
2019-02-15T08:29:02.535Z,17.77
2019-02-15T08:31:30.065Z,20.37
2019-02-15T08:33:57.563Z,11.50
2019-02-15T08:36:25.032Z,23.37
2019-02-15T08:38:52.509Z,16.07
2019-02-15T08:41:20.014Z,20.37
2019-02-15T08:43:47.841Z,22.83
2019-02-15T08:46:15.438Z,13.73
2019-02-15T08:48:46.168Z,20.10
2019-02-15T08:51:12.260Z,16.30
2019-02-15T08:53:39.760Z,15.10
2019-02-15T08:56:07.419Z,16.47
2019-02-15T08:58:34.967Z,21.13
2019-02-15T09:01:02.427Z,16.57
2019-02-15T09:03:30.089Z,17.10
2019-02-15T09:05:57.552Z,12.90
2019-02-15T09:08:25.166Z,13.67
2019-02-15T09:10:52.660Z,14.27
2019-02-15T09:13:20.153Z,11.33
2019-02-15T09:15:47.722Z,12.57
2019-02-15T09:18:15.185Z,11.73
2019-02-15T09:20:42.683Z,13.83
2019-02-15T09:23:12.192Z,11.37
2019-02-15T09:25:39.326Z,9.60
2019-02-15T09:28:14.458Z,11.53
2019-02-15T09:30:42.586Z,15.33
2019-02-15T09:33:10.114Z,9.60
2019-02-15T09:35:37.596Z,11.27
2019-02-15T09:38:05.059Z,18.73
2019-02-15T09:40:32.518Z,13.00
2019-02-15T09:42:59.999Z,21.67
2019-02-15T09:45:27.568Z,12.00
2019-02-15T09:47:55.084Z,11.03
2019-02-15T09:50:22.544Z,10.93
2019-02-15T09:52:50.120Z,11.63
2019-02-15T09:55:17.725Z,14.50
2019-02-15T09:57:45.562Z,19.00
2019-02-15T10:00:13.128Z,12.20
2019-02-15T10:02:40.606Z,21.80
2019-02-15T10:05:08.647Z,18.73
2019-02-15T10:07:36.132Z,11.60
2019-02-15T10:10:04.007Z,12.43
2019-02-15T10:12:31.534Z,13.10
2019-02-15T10:14:58.924Z,16.00
2019-02-15T10:17:26.407Z,16.87
2019-02-15T10:19:53.869Z,13.90
2019-02-15T10:22:21.326Z,9.83
2019-02-15T10:24:48.833Z,12.03
2019-02-15T10:27:16.311Z,10.57
2019-02-15T10:29:43.776Z,8.33
2019-02-15T10:32:11.235Z,13.83
2019-02-15T10:34:38.729Z,5.60
2019-02-15T10:37:06.184Z,6.70
2019-02-15T10:39:33.670Z,6.23
2019-02-15T10:42:01.484Z,17.93
2019-02-15T10:44:28.949Z,6.03
2019-02-15T10:46:56.488Z,8.30
2019-02-15T10:49:23.975Z,12.87
2019-02-15T10:51:51.440Z,9.63
2019-02-15T10:54:18.895Z,8.83
2019-02-15T10:56:46.371Z,5.90
2019-02-15T10:59:13.838Z,11.80
2019-02-15T11:01:41.295Z,14.17
2019-02-15T11:04:08.801Z,9.80
2019-02-15T11:06:36.254Z,5.90
2019-02-15T11:09:05.381Z,8.90
2019-02-15T11:11:33.057Z,7.43
2019-02-15T11:14:00.524Z,7.77
2019-02-15T11:16:28.039Z,6.97
2019-02-15T11:18:55.552Z,13.10
2019-02-15T11:21:24.507Z,9.97
2019-02-15T11:23:52.032Z,8.70
2019-02-15T11:26:24.828Z,10.03
2019-02-15T11:28:48.653Z,8.30
2019-02-15T11:31:16.985Z,8.47
2019-02-15T11:33:44.664Z,11.27
2019-02-15T11:36:12.210Z,9.70
2019-02-15T11:38:39.601Z,13.63
2019-02-15T11:41:11.079Z,11.47
2019-02-15T11:43:36.236Z,7.53
2019-02-15T11:46:03.700Z,7.77
2019-02-15T11:48:31.196Z,7.97
2019-02-15T11:50:58.765Z,8.53
2019-02-15T11:53:26.213Z,7.80
2019-02-15T11:55:53.801Z,8.40
2019-02-15T11:58:21.430Z,9.97
2019-02-15T12:00:48.967Z,7.20
2019-02-15T12:03:16.417Z,9.23
2019-02-15T12:05:43.909Z,9.10
2019-02-15T12:08:11.376Z,6.97
2019-02-15T12:10:38.842Z,7.80
2019-02-15T12:13:06.409Z,8.70
2019-02-15T12:15:35.486Z,7.30
2019-02-15T12:18:03.006Z,8.23
2019-02-15T12:20:30.507Z,12.97
2019-02-15T12:22:58.059Z,7.43
2019-02-15T12:25:25.511Z,8.23
2019-02-15T12:27:53.022Z,8.03
2019-02-15T12:30:20.483Z,8.47
2019-02-15T12:32:48.125Z,9.90
2019-02-15T12:35:15.604Z,9.03
2019-02-15T12:37:43.059Z,8.83
2019-02-15T12:40:11.037Z,8.30
2019-02-15T12:42:38.539Z,9.00
2019-02-15T12:45:10.167Z,10.23
2019-02-15T12:47:37.626Z,9.87
2019-02-15T12:50:09.594Z,9.20
2019-02-15T12:52:36.982Z,9.30
2019-02-15T12:55:04.560Z,8.77
2019-02-15T12:57:32.042Z,10.70
2019-02-15T12:59:59.510Z,12.23
2019-02-15T13:02:26.961Z,11.13
2019-02-15T13:04:54.460Z,9.20
2019-02-15T13:07:21.922Z,9.47
2019-02-15T13:09:49.384Z,11.50
2019-02-15T13:12:16.883Z,10.07
2019-02-15T13:14:44.359Z,9.50
2019-02-15T13:17:11.755Z,10.90
2019-02-15T13:19:39.257Z,10.13
2019-02-15T13:22:06.792Z,8.70
2019-02-15T13:24:34.261Z,9.60
2019-02-15T13:27:01.749Z,9.87
2019-02-15T13:29:29.238Z,9.17
2019-02-15T13:31:56.707Z,8.70
2019-02-15T13:34:24.151Z,9.03
2019-02-15T13:36:51.648Z,8.63
2019-02-15T13:39:19.113Z,10.43
2019-02-15T13:41:46.604Z,8.67
2019-02-15T13:44:14.065Z,8.90
2019-02-15T13:46:41.518Z,9.03
2019-02-15T13:49:09.025Z,10.73
2019-02-15T13:51:36.665Z,11.20
2019-02-15T13:54:04.182Z,9.37
2019-02-15T13:56:31.748Z,9.43
2019-02-15T13:58:59.217Z,10.27
2019-02-15T14:01:26.677Z,7.90
2019-02-15T14:03:54.454Z,8.30
2019-02-15T14:06:21.906Z,8.47
2019-02-15T14:08:49.352Z,7.70
2019-02-15T14:11:16.846Z,7.80
2019-02-15T14:13:44.321Z,8.50
2019-02-15T14:16:11.875Z,8.33
2019-02-15T14:18:39.455Z,7.60
2019-02-15T14:21:06.908Z,12.53
2019-02-15T14:23:34.353Z,8.73
2019-02-15T14:26:01.843Z,9.00
2019-02-15T14:28:29.296Z,7.47
2019-02-15T14:30:56.753Z,8.97
2019-02-15T14:33:24.238Z,8.17
2019-02-15T14:35:51.772Z,8.67
2019-02-15T14:38:19.251Z,7.43
2019-02-15T14:40:46.749Z,6.77
2019-02-15T14:43:14.198Z,7.80
2019-02-15T14:45:41.588Z,7.13
2019-02-15T14:48:09.097Z,9.10
2019-02-15T14:50:36.566Z,7.83
2019-02-15T14:53:04.098Z,6.93
2019-02-15T14:55:31.680Z,7.70
2019-02-15T14:57:59.141Z,8.43
2019-02-15T15:00:26.665Z,9.30
2019-02-15T15:02:54.260Z,10.00
2019-02-15T15:05:21.738Z,10.77
2019-02-15T15:07:49.278Z,10.07
2019-02-15T15:10:16.776Z,8.83
2019-02-15T15:12:44.263Z,15.03
2019-02-15T15:15:12.501Z,8.67
2019-02-15T15:17:39.999Z,9.53
2019-02-15T15:20:08.744Z,9.33
2019-02-15T15:22:36.193Z,8.07
2019-02-15T15:25:04.073Z,11.90
2019-02-15T15:27:31.570Z,12.33
2019-02-15T15:29:59.172Z,9.17
2019-02-15T15:32:26.651Z,9.67
2019-02-15T15:34:54.145Z,10.53
2019-02-15T15:37:21.650Z,14.20
2019-02-15T15:39:49.121Z,11.27
2019-02-15T15:42:16.667Z,11.40
2019-02-15T15:44:44.145Z,15.50
2019-02-15T15:47:11.630Z,13.10
2019-02-15T15:49:39.132Z,13.40
2019-02-15T15:52:06.671Z,14.33
2019-02-15T15:54:34.133Z,10.10
2019-02-15T15:57:01.725Z,10.93
2019-02-15T15:59:29.186Z,12.70
2019-02-15T16:01:57.617Z,15.50
2019-02-15T16:04:25.301Z,12.70
2019-02-15T16:06:52.756Z,11.87
2019-02-15T16:09:20.460Z,11.47
2019-02-15T16:11:47.939Z,16.03
2019-02-15T16:14:15.415Z,9.90
2019-02-15T16:16:42.912Z,14.63
2019-02-15T16:19:10.376Z,6.50
2019-02-15T16:21:37.840Z,7.90
2019-02-15T16:24:12.341Z,7.93
2019-02-15T16:26:34.480Z,7.20
2019-02-15T16:29:01.946Z,20.90
2019-02-15T16:31:29.464Z,14.80
2019-02-15T16:33:56.928Z,13.23
2019-02-15T16:36:24.481Z,11.63
2019-02-15T16:38:51.976Z,10.73
2019-02-15T16:41:19.435Z,7.47
2019-02-15T16:43:47.079Z,12.87
2019-02-15T16:46:14.516Z,9.67
2019-02-15T16:48:42.444Z,8.50
2019-02-15T16:51:10.024Z,7.77
2019-02-15T16:53:37.523Z,6.93
2019-02-15T16:56:05.000Z,6.10
2019-02-15T16:58:32.525Z,9.90
2019-02-15T17:01:00.035Z,8.73
2019-02-15T17:03:27.509Z,9.30
2019-02-15T17:05:54.972Z,6.10
2019-02-15T17:08:22.493Z,6.70
2019-02-15T17:10:50.033Z,7.53
2019-02-15T17:13:17.512Z,8.50
2019-02-15T17:15:45.031Z,6.43
2019-02-15T17:18:12.507Z,6.73
2019-02-15T17:20:40.058Z,6.90
2019-02-15T17:23:07.744Z,5.60
2019-02-15T17:25:35.289Z,10.60
2019-02-15T17:28:02.748Z,8.17
2019-02-15T17:30:30.232Z,8.57
2019-02-15T17:32:57.857Z,7.47
2019-02-15T17:35:25.363Z,11.47
2019-02-15T17:37:52.842Z,11.90
2019-02-15T17:40:20.302Z,9.43
2019-02-15T17:42:47.898Z,9.33
2019-02-15T17:45:15.385Z,13.27
2019-02-15T17:47:42.824Z,15.93
2019-02-15T17:50:10.827Z,9.27
2019-02-15T17:52:38.376Z,15.37
2019-02-15T17:55:06.894Z,17.93
2019-02-15T17:57:34.623Z,16.00
2019-02-15T18:00:02.186Z,13.50
2019-02-15T18:02:29.663Z,11.17
2019-02-15T18:04:57.161Z,13.30
2019-02-15T18:07:24.641Z,8.67
2019-02-15T18:09:52.132Z,11.47
2019-02-15T18:12:19.605Z,9.80
2019-02-15T18:14:47.152Z,12.63
2019-02-15T18:17:14.721Z,18.30
2019-02-15T18:19:47.301Z,15.73
2019-02-15T18:22:11.425Z,17.33
2019-02-15T18:24:38.901Z,13.37
2019-02-15T18:27:06.411Z,11.03
2019-02-15T18:29:33.955Z,14.50
2019-02-15T18:32:01.422Z,10.60
2019-02-15T18:34:28.981Z,14.80
2019-02-15T18:36:56.465Z,19.80
2019-02-15T18:39:23.950Z,13.00
2019-02-15T18:41:51.447Z,15.90
2019-02-15T18:44:18.926Z,18.27
2019-02-15T18:46:46.410Z,11.10
2019-02-15T18:49:19.292Z,17.97
2019-02-15T18:51:43.119Z,14.57
2019-02-15T18:54:10.758Z,13.20
2019-02-15T18:56:38.244Z,13.43
2019-02-15T18:59:05.650Z,14.40
2019-02-15T19:01:33.161Z,19.67
2019-02-15T19:04:00.618Z,14.97
2019-02-15T19:06:28.178Z,15.17
2019-02-15T19:08:55.673Z,15.43
2019-02-15T19:11:23.449Z,19.40
2019-02-15T19:13:50.921Z,19.23
2019-02-15T19:16:18.553Z,20.77
2019-02-15T19:18:46.352Z,26.60
2019-02-15T19:21:14.069Z,18.60
2019-02-15T19:23:41.651Z,19.33
2019-02-15T19:26:09.302Z,22.33
2019-02-15T19:28:38.213Z,18.93
2019-02-15T19:31:05.736Z,18.67
2019-02-15T19:33:33.271Z,15.50
2019-02-15T19:36:00.845Z,15.60
2019-02-15T19:38:28.370Z,17.50
2019-02-15T19:40:55.999Z,16.63
2019-02-15T19:43:23.486Z,18.53
2019-02-15T19:45:52.333Z,19.37
2019-02-15T19:48:20.877Z,18.43
2019-02-15T19:50:48.489Z,17.00
2019-02-15T19:53:15.967Z,17.40
2019-02-15T19:55:43.501Z,17.57
2019-02-15T19:58:11.596Z,17.83
2019-02-15T20:00:39.632Z,21.03
2019-02-15T20:03:07.251Z,24.67
2019-02-15T20:05:34.873Z,24.17
2019-02-15T20:08:02.467Z,16.93
2019-02-15T20:10:30.556Z,16.60
2019-02-15T20:12:58.040Z,15.80
2019-02-15T20:15:25.608Z,22.20
2019-02-15T20:17:53.207Z,25.03
2019-02-15T20:20:20.768Z,15.93
2019-02-15T20:22:48.254Z,15.13
2019-02-15T20:25:15.796Z,20.13
2019-02-15T20:27:43.277Z,23.00
2019-02-15T20:30:12.320Z,17.03
2019-02-15T20:32:39.851Z,15.70
2019-02-15T20:35:08.130Z,17.53
2019-02-15T20:37:35.720Z,14.37
2019-02-15T20:40:03.726Z,17.43
2019-02-15T20:42:31.578Z,18.60
2019-02-15T20:44:59.065Z,17.70
2019-02-15T20:47:26.749Z,17.13
2019-02-15T20:49:58.079Z,15.70
2019-02-15T20:52:23.485Z,19.87
2019-02-15T20:54:52.374Z,21.27
2019-02-15T20:57:19.874Z,21.03
2019-02-15T20:59:47.352Z,17.67
2019-02-15T21:02:15.050Z,16.53
2019-02-15T21:04:42.537Z,18.47
2019-02-15T21:07:10.017Z,16.67
2019-02-15T21:09:37.558Z,19.73
2019-02-15T21:12:05.060Z,22.30
2019-02-15T21:14:32.546Z,18.90
2019-02-15T21:17:00.055Z,15.20
2019-02-15T21:19:27.539Z,20.37
2019-02-15T21:21:55.084Z,16.30
2019-02-15T21:24:22.584Z,21.90
2019-02-15T21:26:50.072Z,23.20
2019-02-15T21:29:17.565Z,18.70
2019-02-15T21:31:46.189Z,23.23
2019-02-15T21:34:13.736Z,23.80
2019-02-15T21:36:41.206Z,20.57
2019-02-15T21:39:08.871Z,20.27
2019-02-15T21:41:36.352Z,21.90
2019-02-15T21:44:03.831Z,22.77
2019-02-15T21:46:31.361Z,19.27
2019-02-15T21:48:58.849Z,22.20
2019-02-15T21:51:26.402Z,23.57
2019-02-15T21:53:53.919Z,23.87
2019-02-15T21:56:21.509Z,19.93
2019-02-15T21:58:49.917Z,22.13
2019-02-15T22:01:17.422Z,25.57
2019-02-15T22:03:44.894Z,19.67
2019-02-15T22:06:12.385Z,25.93
2019-02-15T22:08:39.868Z,24.50
2019-02-15T22:11:07.424Z,19.70
2019-02-15T22:13:35.035Z,22.60
2019-02-15T22:16:02.550Z,20.63
2019-02-15T22:18:30.059Z,19.97
2019-02-15T22:20:57.651Z,17.33
2019-02-15T22:23:25.124Z,23.50
2019-02-15T22:25:52.653Z,20.23
2019-02-15T22:28:20.238Z,18.97
2019-02-15T22:30:47.706Z,18.80
2019-02-15T22:33:15.208Z,19.40
2019-02-15T22:35:42.728Z,19.60
2019-02-15T22:38:10.204Z,20.23
2019-02-15T22:40:38.605Z,19.03
2019-02-15T22:43:13.742Z,16.70
2019-02-15T22:45:41.200Z,19.23
2019-02-15T22:48:08.682Z,19.93
2019-02-15T22:50:36.561Z,19.90
2019-02-15T22:53:04.143Z,22.57
2019-02-15T22:55:31.731Z,21.13
2019-02-15T22:57:59.235Z,18.33
2019-02-15T23:00:48.225Z,21.97
2019-02-15T23:03:16.503Z,22.37
2019-02-15T23:05:43.978Z,19.10
2019-02-15T23:08:11.467Z,18.27
2019-02-15T23:10:38.996Z,20.63
2019-02-15T23:13:06.520Z,19.93
2019-02-15T23:15:34.331Z,21.93
2019-02-15T23:18:01.841Z,19.40
2019-02-15T23:20:29.396Z,19.40
2019-02-15T23:22:56.909Z,19.80
2019-02-15T23:25:25.118Z,24.10
2019-02-15T23:27:52.725Z,18.07
2019-02-15T23:30:20.293Z,18.00
2019-02-15T23:32:48.027Z,19.50
2019-02-15T23:35:15.636Z,18.73
2019-02-15T23:37:43.164Z,20.40
2019-02-15T23:40:10.798Z,19.77
2019-02-15T23:42:38.367Z,21.17
2019-02-15T23:45:06.468Z,21.87
2019-02-15T23:47:34.094Z,17.33
2019-02-15T23:50:01.707Z,18.63
2019-02-15T23:52:29.499Z,23.30
2019-02-15T23:54:56.962Z,28.03
2019-02-15T23:57:24.459Z,22.80
2019-02-15T23:59:51.937Z,18.70
